sensor_id;sensor_type;location;lat;lon;timestamp;pressure;altitude;pressure_sealevel;temperature;humidity
12195;BME280;27023;42.680;23.132;2022-07-05T00:00:10;92343.25;;;18.02;100.00
12195;BME280;27023;42.680;23.132;2022-07-05T00:02:37;92345.94;;;17.95;100.00
12195;BME280;27023;42.680;23.132;2022-07-05T00:05:04;92341.78;;;17.90;100.00
12195;BME280;27023;42.680;23.132;2022-07-05T00:07:31;92338.34;;;17.93;100.00
12195;BME280;27023;42.680;23.132;2022-07-05T00:09:58;92336.81;;;17.96;100.00
12195;BME280;27023;42.680;23.132;2022-07-05T00:12:29;92334.13;;;17.99;100.00
12195;BME280;27023;42.680;23.132;2022-07-05T00:14:57;92336.41;;;17.97;100.00
12195;BME280;27023;42.680;23.132;2022-07-05T00:17:24;92340.56;;;18.13;100.00
12195;BME280;27023;42.680;23.132;2022-07-05T00:19:51;92335.69;;;17.90;100.00
12195;BME280;27023;42.680;23.132;2022-07-05T00:22:17;92335.66;;;17.79;100.00
12195;BME280;27023;42.680;23.132;2022-07-05T00:24:44;92331.88;;;17.80;100.00
12195;BME280;27023;42.680;23.132;2022-07-05T00:27:11;92320.44;;;17.79;100.00
12195;BME280;27023;42.680;23.132;2022-07-05T00:29:39;92313.97;;;17.81;100.00
12195;BME280;27023;42.680;23.132;2022-07-05T00:32:06;92321.94;;;17.98;100.00
12195;BME280;27023;42.680;23.132;2022-07-05T00:34:33;92323.47;;;17.99;100.00
12195;BME280;27023;42.680;23.132;2022-07-05T00:36:59;92327.31;;;17.73;100.00
12195;BME280;27023;42.680;23.132;2022-07-05T00:39:26;92321.59;;;17.68;100.00
12195;BME280;27023;42.680;23.132;2022-07-05T00:41:53;92317.03;;;17.54;100.00
12195;BME280;27023;42.680;23.132;2022-07-05T00:44:28;92322.72;;;17.56;100.00
12195;BME280;27023;42.680;23.132;2022-07-05T00:46:57;92321.22;;;17.52;100.00
12195;BME280;27023;42.680;23.132;2022-07-05T00:49:24;92327.31;;;17.45;100.00
12195;BME280;27023;42.680;23.132;2022-07-05T00:51:50;92320.06;;;17.49;100.00
12195;BME280;27023;42.680;23.132;2022-07-05T00:54:17;92320.09;;;17.45;100.00
12195;BME280;27023;42.680;23.132;2022-07-05T00:56:44;92318.94;;;17.39;100.00
12195;BME280;27023;42.680;23.132;2022-07-05T00:59:11;92314.75;;;17.45;100.00
12195;BME280;27023;42.680;23.132;2022-07-05T01:01:38;92315.50;;;17.53;100.00
12195;BME280;27023;42.680;23.132;2022-07-05T01:04:06;92315.50;;;17.74;100.00
12195;BME280;27023;42.680;23.132;2022-07-05T01:06:33;92319.31;;;17.48;100.00
12195;BME280;27023;42.680;23.132;2022-07-05T01:08:59;92320.09;;;17.38;100.00
12195;BME280;27023;42.680;23.132;2022-07-05T01:11:27;92321.22;;;17.44;100.00
12195;BME280;27023;42.680;23.132;2022-07-05T01:13:56;92317.41;;;17.63;100.00
12195;BME280;27023;42.680;23.132;2022-07-05T01:16:25;92324.66;;;17.48;100.00
12195;BME280;27023;42.680;23.132;2022-07-05T01:18:52;92320.47;;;17.40;100.00
12195;BME280;27023;42.680;23.132;2022-07-05T01:21:21;92327.31;;;17.48;100.00
12195;BME280;27023;42.680;23.132;2022-07-05T01:23:50;92323.13;;;17.58;100.00
12195;BME280;27023;42.680;23.132;2022-07-05T01:26:17;92328.06;;;17.45;100.00
12195;BME280;27023;42.680;23.132;2022-07-05T01:28:44;92330.38;;;17.33;100.00
12195;BME280;27023;42.680;23.132;2022-07-05T01:31:11;92331.50;;;17.32;100.00
12195;BME280;27023;42.680;23.132;2022-07-05T01:33:39;92334.56;;;17.37;100.00
12195;BME280;27023;42.680;23.132;2022-07-05T01:36:06;92334.94;;;17.39;100.00
12195;BME280;27023;42.680;23.132;2022-07-05T01:38:33;92330.38;;;17.29;100.00
12195;BME280;27023;42.680;23.132;2022-07-05T01:41:02;92331.88;;;17.23;100.00
12195;BME280;27023;42.680;23.132;2022-07-05T01:43:29;92319.72;;;17.26;100.00
12195;BME280;27023;42.680;23.132;2022-07-05T01:45:56;92322.75;;;17.24;100.00
12195;BME280;27023;42.680;23.132;2022-07-05T01:48:28;92314.38;;;17.26;100.00
12195;BME280;27023;42.680;23.132;2022-07-05T01:51:01;92307.91;;;17.37;100.00
12195;BME280;27023;42.680;23.132;2022-07-05T01:53:31;92314.38;;;17.72;100.00
12195;BME280;27023;42.680;23.132;2022-07-05T01:56:00;92317.41;;;17.42;100.00
12195;BME280;27023;42.680;23.132;2022-07-05T01:58:28;92312.09;;;17.24;100.00
12195;BME280;27023;42.680;23.132;2022-07-05T02:00:56;92311.72;;;17.22;100.00
12195;BME280;27023;42.680;23.132;2022-07-05T02:03:24;92301.44;;;17.24;100.00
12195;BME280;27023;42.680;23.132;2022-07-05T02:05:51;92298.00;;;17.48;100.00
12195;BME280;27023;42.680;23.132;2022-07-05T02:08:19;92305.25;;;17.16;100.00
12195;BME280;27023;42.680;23.132;2022-07-05T02:10:46;92309.06;;;17.29;100.00
12195;BME280;27023;42.680;23.132;2022-07-05T02:13:14;92309.81;;;17.37;100.00
12195;BME280;27023;42.680;23.132;2022-07-05T02:15:41;92319.69;;;17.47;100.00
12195;BME280;27023;42.680;23.132;2022-07-05T02:18:08;92309.06;;;17.33;100.00
12195;BME280;27023;42.680;23.132;2022-07-05T02:20:39;92321.97;;;17.56;100.00
12195;BME280;27023;42.680;23.132;2022-07-05T02:23:06;92326.94;;;17.50;100.00
12195;BME280;27023;42.680;23.132;2022-07-05T02:25:33;92318.94;;;17.18;100.00
12195;BME280;27023;42.680;23.132;2022-07-05T02:28:00;92328.09;;;17.38;100.00
12195;BME280;27023;42.680;23.132;2022-07-05T02:30:28;92336.06;;;17.60;100.00
12195;BME280;27023;42.680;23.132;2022-07-05T02:32:55;92343.31;;;17.17;100.00
12195;BME280;27023;42.680;23.132;2022-07-05T02:35:22;92335.66;;;17.01;100.00
12195;BME280;27023;42.680;23.132;2022-07-05T02:37:48;92340.59;;;17.06;100.00
12195;BME280;27023;42.680;23.132;2022-07-05T02:40:15;92337.97;;;17.20;100.00
12195;BME280;27023;42.680;23.132;2022-07-05T02:42:42;92342.50;;;17.09;100.00
12195;BME280;27023;42.680;23.132;2022-07-05T02:45:09;92335.25;;;16.92;100.00
12195;BME280;27023;42.680;23.132;2022-07-05T02:47:37;92337.53;;;16.90;100.00
12195;BME280;27023;42.680;23.132;2022-07-05T02:50:05;92341.72;;;16.80;100.00
12195;BME280;27023;42.680;23.132;2022-07-05T02:52:32;92331.06;;;16.87;100.00
12195;BME280;27023;42.680;23.132;2022-07-05T02:54:59;92340.56;;;16.77;100.00
12195;BME280;27023;42.680;23.132;2022-07-05T02:57:26;92345.16;;;16.95;100.00
12195;BME280;27023;42.680;23.132;2022-07-05T02:59:52;92341.78;;;17.19;100.00
12195;BME280;27023;42.680;23.132;2022-07-05T03:02:20;92345.59;;;17.18;100.00
12195;BME280;27023;42.680;23.132;2022-07-05T03:04:48;92349.31;;;16.81;100.00
12195;BME280;27023;42.680;23.132;2022-07-05T03:07:15;92340.94;;;16.69;100.00
12195;BME280;27023;42.680;23.132;2022-07-05T03:09:42;92339.41;;;16.68;100.00
12195;BME280;27023;42.680;23.132;2022-07-05T03:12:08;92341.69;;;16.69;100.00
12195;BME280;27023;42.680;23.132;2022-07-05T03:14:35;92331.81;;;16.77;100.00
12195;BME280;27023;42.680;23.132;2022-07-05T03:17:02;92333.75;;;17.05;100.00
12195;BME280;27023;42.680;23.132;2022-07-05T03:19:29;92332.59;;;16.84;100.00
12195;BME280;27023;42.680;23.132;2022-07-05T03:21:57;92328.00;;;16.74;100.00
12195;BME280;27023;42.680;23.132;2022-07-05T03:24:24;92333.72;;;16.69;100.00
12195;BME280;27023;42.680;23.132;2022-07-05T03:26:50;92337.13;;;16.66;100.00
12195;BME280;27023;42.680;23.132;2022-07-05T03:29:17;92334.47;;;16.70;100.00
12195;BME280;27023;42.680;23.132;2022-07-05T03:31:44;92328.75;;;16.71;100.00
12195;BME280;27023;42.680;23.132;2022-07-05T03:34:10;92323.47;;;16.78;100.00
12195;BME280;27023;42.680;23.132;2022-07-05T03:36:37;92320.81;;;16.82;100.00
12195;BME280;27023;42.680;23.132;2022-07-05T03:39:05;92326.13;;;16.93;100.00
12195;BME280;27023;42.680;23.132;2022-07-05T03:41:32;92333.41;;;17.17;100.00
12195;BME280;27023;42.680;23.132;2022-07-05T03:43:58;92330.38;;;17.26;100.00
12195;BME280;27023;42.680;23.132;2022-07-05T03:46:25;92333.75;;;17.05;100.00
12195;BME280;27023;42.680;23.132;2022-07-05T03:48:52;92328.06;;;17.06;100.00
12195;BME280;27023;42.680;23.132;2022-07-05T03:51:18;92326.19;;;17.14;100.00
12195;BME280;27023;42.680;23.132;2022-07-05T03:53:45;92326.56;;;17.16;100.00
12195;BME280;27023;42.680;23.132;2022-07-05T03:56:13;92331.88;;;17.23;100.00
12195;BME280;27023;42.680;23.132;2022-07-05T03:58:45;92331.50;;;17.28;100.00
12195;BME280;27023;42.680;23.132;2022-07-05T04:01:12;92333.03;;;17.47;100.00
12195;BME280;27023;42.680;23.132;2022-07-05T04:03:39;92338.72;;;17.53;100.00
12195;BME280;27023;42.680;23.132;2022-07-05T04:06:06;92338.34;;;17.54;100.00
12195;BME280;27023;42.680;23.132;2022-07-05T04:08:33;92342.91;;;17.54;100.00
12195;BME280;27023;42.680;23.132;2022-07-05T04:10:59;92339.84;;;17.66;100.00
12195;BME280;27023;42.680;23.132;2022-07-05T04:13:27;92331.13;;;17.72;100.00
12195;BME280;27023;42.680;23.132;2022-07-05T04:15:54;92332.63;;;17.63;100.00
12195;BME280;27023;42.680;23.132;2022-07-05T04:18:21;92334.16;;;17.67;100.00
12195;BME280;27023;42.680;23.132;2022-07-05T04:20:48;92325.75;;;17.97;100.00
12195;BME280;27023;42.680;23.132;2022-07-05T04:23:15;92325.72;;;18.12;100.00
12195;BME280;27023;42.680;23.132;2022-07-05T04:25:42;92321.97;;;17.84;100.00
12195;BME280;27023;42.680;23.132;2022-07-05T04:28:08;92321.97;;;17.91;100.00
12195;BME280;27023;42.680;23.132;2022-07-05T04:30:37;92318.09;;;18.10;100.00
12195;BME280;27023;42.680;23.132;2022-07-05T04:33:03;92321.09;;;18.23;100.00
12195;BME280;27023;42.680;23.132;2022-07-05T04:35:30;92314.94;;;18.40;100.00
12195;BME280;27023;42.680;23.132;2022-07-05T04:37:57;92325.53;;;18.68;100.00
12195;BME280;27023;42.680;23.132;2022-07-05T04:40:23;92318.28;;;18.69;100.00
12195;BME280;27023;42.680;23.132;2022-07-05T04:42:50;92317.91;;;18.53;100.00
12195;BME280;27023;42.680;23.132;2022-07-05T04:45:17;92323.66;;;18.51;100.00
12195;BME280;27023;42.680;23.132;2022-07-05T04:47:45;92328.50;;;18.78;100.00
12195;BME280;27023;42.680;23.132;2022-07-05T04:50:12;92326.06;;;19.04;100.00
12195;BME280;27023;42.680;23.132;2022-07-05T04:52:39;92324.63;;;18.89;100.00
12195;BME280;27023;42.680;23.132;2022-07-05T04:55:06;92332.22;;;18.94;100.00
12195;BME280;27023;42.680;23.132;2022-07-05T04:57:37;92325.31;;;19.00;100.00
12195;BME280;27023;42.680;23.132;2022-07-05T05:00:05;92337.44;;;19.16;100.00
12195;BME280;27023;42.680;23.132;2022-07-05T05:02:32;92334.69;;;19.26;99.12
12195;BME280;27023;42.680;23.132;2022-07-05T05:05:00;92341.78;;;19.54;97.77
12195;BME280;27023;42.680;23.132;2022-07-05T05:07:27;92348.00;;;19.33;99.21
12195;BME280;27023;42.680;23.132;2022-07-05T05:09:54;92344.22;;;19.27;100.00
12195;BME280;27023;42.680;23.132;2022-07-05T05:12:21;92344.16;;;19.38;100.00
12195;BME280;27023;42.680;23.132;2022-07-05T05:14:48;92354.03;;;19.45;100.00
12195;BME280;27023;42.680;23.132;2022-07-05T05:17:15;92345.72;;;19.32;99.05
12195;BME280;27023;42.680;23.132;2022-07-05T05:19:41;92353.38;;;19.26;100.00
12195;BME280;27023;42.680;23.132;2022-07-05T05:22:09;92351.41;;;19.41;98.04
12195;BME280;27023;42.680;23.132;2022-07-05T05:24:37;92345.53;;;19.60;97.17
12195;BME280;27023;42.680;23.132;2022-07-05T05:27:04;92343.06;;;19.80;95.29
12195;BME280;27023;42.680;23.132;2022-07-05T05:29:31;92337.63;;;19.91;94.88
12195;BME280;27023;42.680;23.132;2022-07-05T05:31:57;92345.84;;;20.11;96.12
12195;BME280;27023;42.680;23.132;2022-07-05T05:34:24;92337.47;;;20.05;95.46
12195;BME280;27023;42.680;23.132;2022-07-05T05:36:51;92343.66;;;19.98;94.14
12195;BME280;27023;42.680;23.132;2022-07-05T05:39:19;92342.56;;;19.92;98.90
12195;BME280;27023;42.680;23.132;2022-07-05T05:41:46;92342.28;;;20.21;99.86
12195;BME280;27023;42.680;23.132;2022-07-05T05:44:12;92341.34;;;20.38;89.32
12195;BME280;27023;42.680;23.132;2022-07-05T05:46:39;92337.22;;;20.30;82.58
12195;BME280;27023;42.680;23.132;2022-07-05T05:49:06;92338.56;;;20.49;84.66
12195;BME280;27023;42.680;23.132;2022-07-05T05:51:32;92335.72;;;20.63;83.29
12195;BME280;27023;42.680;23.132;2022-07-05T05:53:59;92345.06;;;20.82;79.74
12195;BME280;27023;42.680;23.132;2022-07-05T05:56:27;92350.09;;;20.42;83.30
12195;BME280;27023;42.680;23.132;2022-07-05T05:58:54;92350.81;;;20.46;83.98
12195;BME280;27023;42.680;23.132;2022-07-05T06:01:20;92354.41;;;20.67;81.08
12195;BME280;27023;42.680;23.132;2022-07-05T06:03:47;92354.63;;;20.79;80.94
12195;BME280;27023;42.680;23.132;2022-07-05T06:06:14;92348.59;;;21.02;78.27
12195;BME280;27023;42.680;23.132;2022-07-05T06:08:40;92356.44;;;20.89;82.21
12195;BME280;27023;42.680;23.132;2022-07-05T06:11:07;92356.16;;;21.11;79.12
12195;BME280;27023;42.680;23.132;2022-07-05T06:13:35;92349.75;;;21.32;78.21
12195;BME280;27023;42.680;23.132;2022-07-05T06:16:02;92350.22;;;21.50;77.12
12195;BME280;27023;42.680;23.132;2022-07-05T06:18:29;92357.56;;;21.46;78.24
12195;BME280;27023;42.680;23.132;2022-07-05T06:20:55;92355.38;;;21.64;77.70
12195;BME280;27023;42.680;23.132;2022-07-05T06:23:22;92362.50;;;21.74;75.57
12195;BME280;27023;42.680;23.132;2022-07-05T06:25:49;92357.72;;;21.85;74.55
12195;BME280;27023;42.680;23.132;2022-07-05T06:28:16;92356.84;;;21.92;74.67
12195;BME280;27023;42.680;23.132;2022-07-05T06:30:44;92362.56;;;21.94;72.59
12195;BME280;27023;42.680;23.132;2022-07-05T06:33:11;92361.16;;;21.86;74.64
12195;BME280;27023;42.680;23.132;2022-07-05T06:35:38;92363.38;;;21.91;76.45
12195;BME280;27023;42.680;23.132;2022-07-05T06:38:05;92356.03;;;21.95;74.44
12195;BME280;27023;42.680;23.132;2022-07-05T06:40:33;92363.16;;;22.05;72.22
12195;BME280;27023;42.680;23.132;2022-07-05T06:43:03;92360.06;;;22.07;74.88
12195;BME280;27023;42.680;23.132;2022-07-05T06:45:30;92357.72;;;21.85;75.93
12195;BME280;27023;42.680;23.132;2022-07-05T06:47:59;92357.59;;;21.69;76.85
12195;BME280;27023;42.680;23.132;2022-07-05T06:50:28;92353.63;;;21.77;76.42
12195;BME280;27023;42.680;23.132;2022-07-05T06:52:55;92346.56;;;21.87;77.65
12195;BME280;27023;42.680;23.132;2022-07-05T06:55:25;92346.56;;;21.87;79.17
12195;BME280;27023;42.680;23.132;2022-07-05T06:58:10;92347.22;;;21.95;78.81
12195;BME280;27023;42.680;23.132;2022-07-05T07:00:37;92350.38;;;21.89;79.37
12195;BME280;27023;42.680;23.132;2022-07-05T07:03:06;92351.94;;;21.87;78.04
12195;BME280;27023;42.680;23.132;2022-07-05T07:05:32;92348.84;;;21.88;78.99
12195;BME280;27023;42.680;23.132;2022-07-05T07:07:59;92355.72;;;22.13;74.15
12195;BME280;27023;42.680;23.132;2022-07-05T07:10:43;92358.34;;;22.16;77.52
12195;BME280;27023;42.680;23.132;2022-07-05T07:13:10;92355.22;;;22.41;75.62
12195;BME280;27023;42.680;23.132;2022-07-05T07:15:37;92363.84;;;22.52;73.99
12195;BME280;27023;42.680;23.132;2022-07-05T07:18:06;92363.56;;;22.67;74.24
12195;BME280;27023;42.680;23.132;2022-07-05T07:20:33;92357.16;;;22.61;76.94
12195;BME280;27023;42.680;23.132;2022-07-05T07:22:59;92362.72;;;22.70;76.19
12195;BME280;27023;42.680;23.132;2022-07-05T07:25:26;92355.03;;;22.92;71.77
12195;BME280;27023;42.680;23.132;2022-07-05T07:27:55;92354.25;;;23.11;70.91
12195;BME280;27023;42.680;23.132;2022-07-05T07:30:24;92351.16;;;23.12;73.96
12195;BME280;27023;42.680;23.132;2022-07-05T07:32:51;92357.78;;;23.24;74.26
12195;BME280;27023;42.680;23.132;2022-07-05T07:35:20;92357.38;;;23.26;71.34
12195;BME280;27023;42.680;23.132;2022-07-05T07:37:47;92353.34;;;23.34;69.20
12195;BME280;27023;42.680;23.132;2022-07-05T07:40:14;92353.69;;;23.20;72.76
12195;BME280;27023;42.680;23.132;2022-07-05T07:42:41;92355.72;;;23.32;71.97
12195;BME280;27023;42.680;23.132;2022-07-05T07:45:08;92355.38;;;23.46;68.50
12195;BME280;27023;42.680;23.132;2022-07-05T07:47:36;92356.06;;;23.50;67.62
12195;BME280;27023;42.680;23.132;2022-07-05T07:50:04;92357.09;;;23.56;69.89
12195;BME280;27023;42.680;23.132;2022-07-05T07:52:33;92355.91;;;23.73;66.45
12195;BME280;27023;42.680;23.132;2022-07-05T07:55:00;92352.22;;;23.84;65.97
12195;BME280;27023;42.680;23.132;2022-07-05T07:57:26;92354.94;;;23.84;60.37
12195;BME280;27023;42.680;23.132;2022-07-05T07:59:53;92357.19;;;23.85;61.65
12195;BME280;27023;42.680;23.132;2022-07-05T08:02:20;92354.84;;;23.87;64.22
12195;BME280;27023;42.680;23.132;2022-07-05T08:04:48;92360.59;;;24.18;62.94
12195;BME280;27023;42.680;23.132;2022-07-05T08:07:15;92358.75;;;24.31;63.40
12195;BME280;27023;42.680;23.132;2022-07-05T08:09:44;92359.22;;;24.43;63.00
12195;BME280;27023;42.680;23.132;2022-07-05T08:12:11;92359.34;;;24.52;63.50
12195;BME280;27023;42.680;23.132;2022-07-05T08:14:38;92352.44;;;24.51;64.92
12195;BME280;27023;42.680;23.132;2022-07-05T08:17:04;92348.41;;;24.59;62.56
12195;BME280;27023;42.680;23.132;2022-07-05T08:19:33;92359.19;;;24.59;61.50
12195;BME280;27023;42.680;23.132;2022-07-05T08:22:17;92348.22;;;24.66;62.92
12195;BME280;27023;42.680;23.132;2022-07-05T08:24:46;92347.34;;;24.69;62.04
12195;BME280;27023;42.680;23.132;2022-07-05T08:27:12;92345.38;;;24.57;64.17
12195;BME280;27023;42.680;23.132;2022-07-05T08:29:39;92347.06;;;24.80;64.01
12195;BME280;27023;42.680;23.132;2022-07-05T08:32:07;92350.53;;;24.93;65.38
12195;BME280;27023;42.680;23.132;2022-07-05T08:34:33;92349.94;;;25.14;63.45
12195;BME280;27023;42.680;23.132;2022-07-05T08:37:00;92347.78;;;25.22;61.95
12195;BME280;27023;42.680;23.132;2022-07-05T08:39:27;92345.19;;;25.18;61.92
12195;BME280;27023;42.680;23.132;2022-07-05T08:41:57;92348.41;;;25.13;61.53
12195;BME280;27023;42.680;23.132;2022-07-05T08:44:27;92340.66;;;25.02;63.62
12195;BME280;27023;42.680;23.132;2022-07-05T08:46:55;92344.75;;;25.20;63.01
12195;BME280;27023;42.680;23.132;2022-07-05T08:49:23;92339.91;;;25.15;62.22
12195;BME280;27023;42.680;23.132;2022-07-05T08:51:52;92337.78;;;25.35;62.25
12195;BME280;27023;42.680;23.132;2022-07-05T08:54:20;92328.16;;;25.47;63.69
12195;BME280;27023;42.680;23.132;2022-07-05T08:56:47;92335.50;;;25.33;63.24
12195;BME280;27023;42.680;23.132;2022-07-05T08:59:15;92335.19;;;25.44;63.05
12195;BME280;27023;42.680;23.132;2022-07-05T09:01:45;92332.59;;;25.28;61.25
12195;BME280;27023;42.680;23.132;2022-07-05T09:04:13;92329.91;;;26.13;60.14
12195;BME280;27023;42.680;23.132;2022-07-05T09:06:40;92323.91;;;26.97;60.26
12195;BME280;27023;42.680;23.132;2022-07-05T09:09:07;92331.72;;;28.15;55.33
12195;BME280;27023;42.680;23.132;2022-07-05T09:11:36;92313.22;;;28.87;50.59
12195;BME280;27023;42.680;23.132;2022-07-05T09:14:04;92307.97;;;28.65;50.87
12195;BME280;27023;42.680;23.132;2022-07-05T09:16:33;92315.19;;;28.77;50.55
12195;BME280;27023;42.680;23.132;2022-07-05T09:19:05;92312.22;;;28.38;48.77
12195;BME280;27023;42.680;23.132;2022-07-05T09:21:32;92319.81;;;28.03;52.31
12195;BME280;27023;42.680;23.132;2022-07-05T09:24:01;92308.31;;;27.63;54.39
12195;BME280;27023;42.680;23.132;2022-07-05T09:26:32;92315.06;;;27.27;55.43
12195;BME280;27023;42.680;23.132;2022-07-05T09:28:59;92306.06;;;27.30;55.73
12195;BME280;27023;42.680;23.132;2022-07-05T09:31:27;92303.47;;;27.17;56.83
12195;BME280;27023;42.680;23.132;2022-07-05T09:33:59;92308.50;;;27.37;58.01
12195;BME280;27023;42.680;23.132;2022-07-05T09:36:46;92304.84;;;28.39;55.68
12195;BME280;27023;42.680;23.132;2022-07-05T09:39:13;92306.16;;;29.40;50.54
12195;BME280;27023;42.680;23.132;2022-07-05T09:41:40;92295.59;;;30.47;47.98
12195;BME280;27023;42.680;23.132;2022-07-05T09:44:07;92291.28;;;31.23;45.16
12195;BME280;27023;42.680;23.132;2022-07-05T09:46:33;92289.09;;;30.45;47.08
12195;BME280;27023;42.680;23.132;2022-07-05T09:49:01;92291.59;;;29.20;50.33
12195;BME280;27023;42.680;23.132;2022-07-05T09:51:28;92294.22;;;29.05;50.55
12195;BME280;27023;42.680;23.132;2022-07-05T09:53:57;92290.75;;;29.04;51.98
12195;BME280;27023;42.680;23.132;2022-07-05T09:56:24;92279.97;;;29.28;52.20
12195;BME280;27023;42.680;23.132;2022-07-05T09:58:54;92279.16;;;31.24;47.64
12195;BME280;27023;42.680;23.132;2022-07-05T10:01:25;92272.66;;;34.48;39.28
12195;BME280;27023;42.680;23.132;2022-07-05T10:03:53;92276.88;;;38.60;31.97
12195;BME280;27023;42.680;23.132;2022-07-05T10:06:22;92254.91;;;41.28;27.73
12195;BME280;27023;42.680;23.132;2022-07-05T10:08:49;92248.72;;;42.33;26.37
12195;BME280;27023;42.680;23.132;2022-07-05T10:11:17;92250.59;;;44.48;24.49
12195;BME280;27023;42.680;23.132;2022-07-05T10:13:45;92251.28;;;46.18;22.18
12195;BME280;27023;42.680;23.132;2022-07-05T10:16:14;92250.78;;;46.12;22.52
12195;BME280;27023;42.680;23.132;2022-07-05T10:18:41;92244.94;;;44.78;22.76
12195;BME280;27023;42.680;23.132;2022-07-05T10:21:12;92246.19;;;43.38;25.74
12195;BME280;27023;42.680;23.132;2022-07-05T10:23:42;92230.94;;;44.61;24.33
12195;BME280;27023;42.680;23.132;2022-07-05T10:26:11;92235.97;;;47.50;20.47
12195;BME280;27023;42.680;23.132;2022-07-05T10:28:39;92229.63;;;48.52;20.03
12195;BME280;27023;42.680;23.132;2022-07-05T10:31:06;92226.69;;;49.58;19.76
12195;BME280;27023;42.680;23.132;2022-07-05T10:33:35;92226.81;;;49.60;18.16
12195;BME280;27023;42.680;23.132;2022-07-05T10:36:03;92219.13;;;49.70;18.63
12195;BME280;27023;42.680;23.132;2022-07-05T10:38:35;92219.47;;;48.95;19.31
12195;BME280;27023;42.680;23.132;2022-07-05T10:41:05;92210.38;;;44.56;21.22
12195;BME280;27023;42.680;23.132;2022-07-05T10:43:33;92216.72;;;41.47;23.13
12195;BME280;27023;42.680;23.132;2022-07-05T10:46:00;92204.97;;;39.33;25.83
12195;BME280;27023;42.680;23.132;2022-07-05T10:48:32;92206.56;;;37.48;29.20
12195;BME280;27023;42.680;23.132;2022-07-05T10:50:59;92208.44;;;36.05;32.48
12195;BME280;27023;42.680;23.132;2022-07-05T10:54:00;92204.34;;;35.26;35.19
12195;BME280;27023;42.680;23.132;2022-07-05T10:56:28;92211.50;;;34.51;35.48
12195;BME280;27023;42.680;23.132;2022-07-05T10:59:04;92209.41;;;33.32;39.69
12195;BME280;27023;42.680;23.132;2022-07-05T11:01:34;92208.97;;;32.76;39.57
12195;BME280;27023;42.680;23.132;2022-07-05T11:04:18;92202.97;;;32.46;40.76
12195;BME280;27023;42.680;23.132;2022-07-05T11:06:45;92200.44;;;31.97;40.81
12195;BME280;27023;42.680;23.132;2022-07-05T11:09:18;92204.72;;;32.03;41.63
12195;BME280;27023;42.680;23.132;2022-07-05T11:12:01;92209.75;;;32.10;42.61
12195;BME280;27023;42.680;23.132;2022-07-05T11:14:31;92204.72;;;32.03;43.85
12195;BME280;27023;42.680;23.132;2022-07-05T11:17:24;92199.69;;;30.91;45.67
12195;BME280;27023;42.680;23.132;2022-07-05T11:20:14;92196.41;;;30.87;45.35
12195;BME280;27023;42.680;23.132;2022-07-05T11:23:01;92200.09;;;31.34;48.37
12195;BME280;27023;42.680;23.132;2022-07-05T11:25:29;92185.88;;;31.24;45.76
12195;BME280;27023;42.680;23.132;2022-07-05T11:28:05;92197.84;;;31.32;47.06
12195;BME280;27023;42.680;23.132;2022-07-05T11:30:48;92197.81;;;31.47;48.14
12195;BME280;27023;42.680;23.132;2022-07-05T11:33:42;92193.97;;;31.74;42.72
12195;BME280;27023;42.680;23.132;2022-07-05T11:36:23;92182.81;;;31.37;42.40
12195;BME280;27023;42.680;23.132;2022-07-05T11:39:12;92174.28;;;31.29;44.13
12195;BME280;27023;42.680;23.132;2022-07-05T11:41:43;92177.78;;;31.29;45.72
12195;BME280;27023;42.680;23.132;2022-07-05T11:44:13;92182.69;;;31.66;46.26
12195;BME280;27023;42.680;23.132;2022-07-05T11:46:40;92171.00;;;31.80;49.13
12195;BME280;27023;42.680;23.132;2022-07-05T11:49:07;92173.88;;;31.71;46.97
12195;BME280;27023;42.680;23.132;2022-07-05T11:51:34;92170.47;;;31.06;50.24
12195;BME280;27023;42.680;23.132;2022-07-05T11:54:07;92174.22;;;31.23;48.32
12195;BME280;27023;42.680;23.132;2022-07-05T11:56:43;92163.88;;;31.13;47.68
12195;BME280;27023;42.680;23.132;2022-07-05T11:59:19;92160.91;;;30.96;47.14
12195;BME280;27023;42.680;23.132;2022-07-05T12:01:46;92149.59;;;31.33;46.44
12195;BME280;27023;42.680;23.132;2022-07-05T12:04:20;92151.38;;;30.86;47.86
12195;BME280;27023;42.680;23.132;2022-07-05T12:06:50;92151.66;;;30.88;48.21
12195;BME280;27023;42.680;23.132;2022-07-05T12:09:22;92150.28;;;30.63;48.36
12195;BME280;27023;42.680;23.132;2022-07-05T12:11:50;92149.97;;;30.46;51.14
12195;BME280;27023;42.680;23.132;2022-07-05T12:14:35;92148.56;;;30.51;47.54
12195;BME280;27023;42.680;23.132;2022-07-05T12:17:12;92142.19;;;30.39;49.77
12195;BME280;27023;42.680;23.132;2022-07-05T12:19:39;92144.91;;;30.10;51.08
12195;BME280;27023;42.680;23.132;2022-07-05T12:22:06;92141.91;;;30.81;50.12
12195;BME280;27023;42.680;23.132;2022-07-05T12:24:34;92139.84;;;31.26;47.79
12195;BME280;27023;42.680;23.132;2022-07-05T12:27:01;92143.75;;;30.90;49.57
12195;BME280;27023;42.680;23.132;2022-07-05T12:29:28;92142.38;;;31.50;44.21
12195;BME280;27023;42.680;23.132;2022-07-05T12:32:00;92136.25;;;31.75;44.66
12195;BME280;27023;42.680;23.132;2022-07-05T12:34:28;92134.72;;;32.15;40.48
12195;BME280;27023;42.680;23.132;2022-07-05T12:36:56;92140.84;;;32.30;42.11
12195;BME280;27023;42.680;23.132;2022-07-05T12:39:23;92127.34;;;32.21;39.91
12195;BME280;27023;42.680;23.132;2022-07-05T12:41:50;92126.13;;;32.48;40.20
12195;BME280;27023;42.680;23.132;2022-07-05T12:44:20;92122.72;;;32.59;37.31
12195;BME280;27023;42.680;23.132;2022-07-05T12:46:48;92133.72;;;32.38;40.88
12195;BME280;27023;42.680;23.132;2022-07-05T12:49:17;92113.56;;;32.30;40.12
12195;BME280;27023;42.680;23.132;2022-07-05T12:51:45;92113.34;;;32.08;44.08